Time;durP1;ratioP1;P1;durP2;ratioP2;P2;SDS_P1;SDS_P2;PMS_P1;PMS_P2;Temp;Humidity;BMP_temperature;BMP_pressure;BME280_temperature;BME280_humidity;BME280_pressure;Samples;Min_cycle;Max_cycle;Signal;HPM_P1;HPM_P2
2022/03/28 17:23:11;;;;;;;;;38.50;34.50;;;;;;;;5121454;27;1376071;-88
2022/03/28 17:25:36;;;;;;;;;36.00;31.75;;;;;;;;5148391;27;28271;-92
2022/03/28 17:28:02;;;;;;;;;41.00;35.00;;;;;;;;5132281;27;28443;-88
2022/03/28 17:30:28;;;;;;;;;37.50;33.00;;;;;;;;5149523;27;28416;-93
2022/03/28 17:32:53;;;;;;;;;42.00;34.25;;;;;;;;5132838;27;28447;-92
2022/03/28 17:35:19;;;;;;;;;34.00;31.00;;;;;;;;5149850;27;28372;-94
2022/03/28 17:37:46;;;;;;;;;34.50;31.00;;;;;;;;5130074;27;28509;-91
2022/03/28 17:40:13;;;;;;;;;33.00;31.20;;;;;;;;5144154;27;28597;-90
2022/03/28 17:42:39;;;;;;;;;37.00;33.75;;;;;;;;5144287;27;28599;-90
2022/03/28 17:45:06;;;;;;;;;41.50;34.00;;;;;;;;5155977;27;28444;-92
2022/03/28 17:47:31;;;;;;;;;43.40;36.00;;;;;;;;5149610;27;28117;-96
2022/03/28 17:49:56;;;;;;;;;46.00;37.25;;;;;;;;5141975;27;27898;-93
2022/03/28 17:52:22;;;;;;;;;52.75;43.75;;;;;;;;5132877;27;29668;-94
2022/03/28 17:54:48;;;;;;;;;55.67;45.00;;;;;;;;5134849;27;28573;-95
2022/03/28 17:57:14;;;;;;;;;53.00;44.00;;;;;;;;5119203;27;27819;-95
2022/03/28 17:59:39;;;;;;;;;55.60;44.00;;;;;;;;5114764;27;27907;-94
2022/03/28 18:02:04;;;;;;;;;47.33;40.67;;;;;;;;5111547;27;29718;-95
2022/03/28 18:09:35;;;;;;;;;50.00;41.00;;;;;;;;5053516;28;29093;-93
2022/03/28 18:12:00;;;;;;;;;46.33;39.00;;;;;;;;5049757;28;30148;-87
2022/03/28 18:14:26;;;;;;;;;46.50;39.00;;;;;;;;5045878;28;29456;-84
2022/03/28 18:16:51;;;;;;;;;51.50;42.50;;;;;;;;5066272;28;28372;-89
2022/03/28 18:19:20;;;;;;;;;52.67;42.00;;;;;;;;5047969;28;28520;-89
2022/03/28 18:21:49;;;;;;;;;52.00;43.00;;;;;;;;5047609;28;28895;-92
2022/03/28 18:24:21;;;;;;;;;48.00;40.40;;;;;;;;5060017;28;29025;-95
2022/03/28 18:26:58;;;;;;;;;52.00;42.00;;;;;;;;5049571;28;28309;-96
2022/03/28 18:29:24;;;;;;;;;47.80;39.20;;;;;;;;5048938;28;27875;-93
2022/03/28 18:31:49;;;;;;;;;49.25;41.00;;;;;;;;5047777;28;29354;-95
2022/03/28 18:34:14;;;;;;;;;48.75;39.25;;;;;;;;5033279;28;28685;-90
2022/03/28 18:36:45;;;;;;;;;49.00;39.25;;;;;;;;5045223;28;27839;-95
2022/03/28 18:39:10;;;;;;;;;49.75;41.25;;;;;;;;5018637;28;28667;-86
2022/03/28 18:41:35;;;;;;;;;48.00;40.33;;;;;;;;5050635;28;28329;-91
2022/03/28 18:44:01;;;;;;;;;55.00;44.00;;;;;;;;5053292;28;28574;-89
2022/03/28 18:46:27;;;;;;;;;49.25;41.00;;;;;;;;5052083;28;28224;-94
2022/03/28 18:48:53;;;;;;;;;52.50;41.75;;;;;;;;5035045;28;28553;-92
2022/03/28 18:51:18;;;;;;;;;44.00;36.00;;;;;;;;5034542;28;29997;-93
2022/03/28 18:53:45;;;;;;;;;54.33;43.00;;;;;;;;5036212;28;28948;-93
2022/03/28 18:56:11;;;;;;;;;52.25;43.25;;;;;;;;5051681;28;29103;-94
2022/03/28 18:58:36;;;;;;;;;50.25;41.00;;;;;;;;5052558;28;27870;-95
2022/03/28 19:01:02;;;;;;;;;48.00;40.67;;;;;;;;5052212;28;29912;-93
2022/03/28 19:03:27;;;;;;;;;50.00;41.00;;;;;;;;5051348;28;28605;-94
2022/03/28 19:05:53;;;;;;;;;50.00;40.25;;;;;;;;5052875;28;28577;-94
2022/03/28 19:08:18;;;;;;;;;50.33;41.33;;;;;;;;5051721;28;28413;-88
2022/03/28 19:10:44;;;;;;;;;49.75;42.00;;;;;;;;5052482;28;28785;-90
2022/03/28 19:13:09;;;;;;;;;54.00;43.50;;;;;;;;5052311;28;28233;-93
2022/03/28 19:15:35;;;;;;;;;53.25;44.25;;;;;;;;5049598;28;28387;-91
2022/03/28 19:18:00;;;;;;;;;49.25;41.00;;;;;;;;5049457;28;27951;-90
2022/03/28 19:20:25;;;;;;;;;50.33;41.67;;;;;;;;5050725;28;29228;-92
2022/03/28 19:22:50;;;;;;;;;50.00;40.00;;;;;;;;5050006;28;28583;-91
2022/03/28 19:25:16;;;;;;;;;49.00;39.67;;;;;;;;5049723;28;28550;-92
2022/03/28 19:27:46;;;;;;;;;42.33;36.00;;;;;;;;5050863;28;28772;-94
2022/03/28 19:30:12;;;;;;;;;42.00;34.80;;;;;;;;5050778;28;30448;-92
2022/03/28 19:32:37;;;;;;;;;41.25;36.25;;;;;;;;5050833;28;28834;-93
2022/03/28 19:35:03;;;;;;;;;40.75;34.25;;;;;;;;5050366;28;28391;-91
2022/03/28 19:37:29;;;;;;;;;32.00;30.50;;;;;;;;5052502;28;28447;-94
2022/03/28 19:39:55;;;;;;;;;35.75;32.00;;;;;;;;5050968;28;29851;-91
2022/03/28 19:42:20;;;;;;;;;32.50;31.50;;;;;;;;5049338;28;28458;-93
2022/03/28 19:44:45;;;;;;;;;39.25;34.50;;;;;;;;5048690;28;28566;-92
2022/03/28 19:47:11;;;;;;;;;37.00;33.00;;;;;;;;5049823;28;28498;-91
2022/03/28 19:49:37;;;;;;;;;41.20;35.20;;;;;;;;5052879;28;29872;-90
2022/03/28 19:52:04;;;;;;;;;44.50;35.00;;;;;;;;5049157;28;28945;-89
2022/03/28 19:54:31;;;;;;;;;43.60;36.40;;;;;;;;5048229;28;28505;-90
2022/03/28 19:56:57;;;;;;;;;39.50;34.75;;;;;;;;5048171;28;28443;-89
2022/03/28 19:59:22;;;;;;;;;42.33;35.67;;;;;;;;5049429;28;29405;-90
2022/03/28 20:01:49;;;;;;;;;38.75;34.50;;;;;;;;5048894;28;28533;-91
2022/03/28 20:04:14;;;;;;;;;38.25;32.25;;;;;;;;5049768;28;28473;-88
2022/03/28 20:06:40;;;;;;;;;37.00;32.50;;;;;;;;5049236;28;28411;-89
2022/03/28 20:09:05;;;;;;;;;33.00;31.00;;;;;;;;5049126;28;28442;-89
2022/03/28 20:11:32;;;;;;;;;39.50;33.00;;;;;;;;5049303;28;28556;-90
2022/03/28 20:13:57;;;;;;;;;34.80;32.80;;;;;;;;5049002;28;28256;-89
2022/03/28 20:16:23;;;;;;;;;36.67;33.00;;;;;;;;5049592;28;28359;-91
2022/03/28 20:18:48;;;;;;;;;43.00;33.00;;;;;;;;5048975;28;28524;-90
2022/03/28 20:21:14;;;;;;;;;37.00;34.00;;;;;;;;5048957;28;28261;-88
2022/03/28 20:23:39;;;;;;;;;39.75;35.00;;;;;;;;5049172;28;28450;-89
2022/03/28 20:26:06;;;;;;;;;45.25;35.00;;;;;;;;5050955;28;28281;-87
2022/03/28 20:28:31;;;;;;;;;41.75;35.00;;;;;;;;5050168;28;29841;-87
2022/03/28 20:30:57;;;;;;;;;38.00;32.75;;;;;;;;5047539;28;28353;-88
2022/03/28 20:33:22;;;;;;;;;43.50;35.50;;;;;;;;5049270;28;28411;-88
2022/03/28 20:35:47;;;;;;;;;45.00;38.33;;;;;;;;5049141;28;28414;-88
2022/03/28 20:38:13;;;;;;;;;34.75;32.50;;;;;;;;5047333;28;30865;-87
2022/03/28 20:40:39;;;;;;;;;39.00;32.00;;;;;;;;5049068;28;28480;-88
2022/03/28 20:43:04;;;;;;;;;38.00;32.00;;;;;;;;5048400;28;28374;-87
2022/03/28 20:45:29;;;;;;;;;36.75;31.00;;;;;;;;5048855;28;28428;-87
2022/03/28 20:47:55;;;;;;;;;38.75;33.00;;;;;;;;5048777;28;28555;-88
2022/03/28 20:50:20;;;;;;;;;39.00;33.67;;;;;;;;5049288;28;28520;-89
2022/03/28 20:52:45;;;;;;;;;41.33;35.33;;;;;;;;5049070;28;28282;-89
2022/03/28 20:55:12;;;;;;;;;38.50;34.25;;;;;;;;5048470;28;28339;-90
2022/03/28 20:57:37;;;;;;;;;39.75;34.75;;;;;;;;5048363;28;29431;-90
2022/03/28 21:00:04;;;;;;;;;36.67;33.00;;;;;;;;5047407;28;28320;-89
2022/03/28 21:02:31;;;;;;;;;47.75;36.50;;;;;;;;5047006;28;28273;-94
2022/03/28 21:04:56;;;;;;;;;41.75;36.50;;;;;;;;5047597;28;28408;-89
2022/03/28 21:07:22;;;;;;;;;42.00;34.40;;;;;;;;5047845;28;28535;-89
2022/03/28 21:09:47;;;;;;;;;35.00;31.00;;;;;;;;5048585;28;28367;-89
2022/03/28 21:12:12;;;;;;;;;41.75;33.25;;;;;;;;5047076;28;28545;-91
2022/03/28 21:14:37;;;;;;;;;43.75;35.75;;;;;;;;5048656;28;28373;-89
2022/03/28 21:17:03;;;;;;;;;45.50;38.00;;;;;;;;5048331;28;28433;-89
2022/03/28 21:19:28;;;;;;;;;49.00;39.00;;;;;;;;5047981;28;29197;-89
2022/03/28 21:21:54;;;;;;;;;44.33;38.00;;;;;;;;5048223;28;28480;-90
2022/03/28 21:24:20;;;;;;;;;46.00;37.00;;;;;;;;5048490;28;28465;-90
2022/03/28 21:26:46;;;;;;;;;50.25;40.00;;;;;;;;5048025;28;28644;-90
2022/03/28 21:29:11;;;;;;;;;47.00;39.00;;;;;;;;5046851;28;28443;-91
2022/03/28 21:31:36;;;;;;;;;53.67;42.33;;;;;;;;5048436;28;28487;-91
2022/03/28 21:34:02;;;;;;;;;47.75;37.25;;;;;;;;5048545;28;28541;-91
2022/03/28 21:36:27;;;;;;;;;46.25;38.25;;;;;;;;5047092;28;30865;-90
2022/03/28 21:38:52;;;;;;;;;47.67;37.33;;;;;;;;5046834;28;28544;-90
2022/03/28 21:41:17;;;;;;;;;44.00;37.25;;;;;;;;5048274;28;28237;-91
2022/03/28 21:43:43;;;;;;;;;38.50;35.25;;;;;;;;5047240;28;27987;-91
2022/03/28 21:46:08;;;;;;;;;45.25;38.00;;;;;;;;5048521;28;28255;-90
2022/03/28 21:48:33;;;;;;;;;45.00;37.75;;;;;;;;5046873;28;28477;-90
2022/03/28 21:50:59;;;;;;;;;46.33;37.67;;;;;;;;5048202;28;28427;-91
2022/03/28 21:53:24;;;;;;;;;45.00;37.67;;;;;;;;5048348;28;28438;-89
2022/03/28 21:55:49;;;;;;;;;49.50;39.00;;;;;;;;5047930;28;28524;-90
2022/03/28 21:58:14;;;;;;;;;46.75;39.00;;;;;;;;5047929;28;28383;-89
2022/03/28 22:00:50;;;;;;;;;45.00;38.00;;;;;;;;5046606;28;28565;-90
2022/03/28 22:03:26;;;;;;;;;48.20;39.40;;;;;;;;5048036;28;28300;-89
2022/03/28 22:05:52;;;;;;;;;44.50;37.00;;;;;;;;5047792;28;28856;-90
2022/03/28 22:08:18;;;;;;;;;42.60;36.60;;;;;;;;5047234;28;29481;-90
2022/03/28 22:10:43;;;;;;;;;43.75;37.00;;;;;;;;5050169;28;28434;-88
2022/03/28 22:13:08;;;;;;;;;47.50;41.00;;;;;;;;5050948;28;28336;-89
2022/03/28 22:15:34;;;;;;;;;49.00;41.33;;;;;;;;5051358;28;28772;-88
2022/03/28 22:17:59;;;;;;;;;51.33;42.00;;;;;;;;5057139;28;28483;-96
2022/03/28 22:20:25;;;;;;;;;48.00;41.00;;;;;;;;5033016;28;28440;-90
2022/03/28 22:22:50;;;;;;;;;58.00;45.75;;;;;;;;5051449;28;28878;-88
2022/03/28 22:25:15;;;;;;;;;57.67;47.00;;;;;;;;5051545;28;28906;-86
2022/03/28 22:27:40;;;;;;;;;57.00;46.33;;;;;;;;5051780;28;28449;-89
2022/03/28 22:30:09;;;;;;;;;59.50;47.50;;;;;;;;5052306;28;28196;-95
2022/03/28 22:32:35;;;;;;;;;60.75;48.25;;;;;;;;5034125;28;28273;-88
2022/03/28 22:35:00;;;;;;;;;60.50;49.25;;;;;;;;5051091;28;28510;-91
2022/03/28 22:37:26;;;;;;;;;56.75;46.50;;;;;;;;5034150;28;28265;-90
2022/03/28 22:39:51;;;;;;;;;61.00;48.25;;;;;;;;5033422;28;28788;-93
2022/03/28 22:42:16;;;;;;;;;59.67;48.67;;;;;;;;5032187;28;28408;-90
2022/03/28 22:44:41;;;;;;;;;62.33;49.33;;;;;;;;5050585;28;28436;-92
2022/03/28 22:47:06;;;;;;;;;60.67;49.67;;;;;;;;5051565;28;28420;-91
2022/03/28 22:49:32;;;;;;;;;61.33;50.00;;;;;;;;5051192;28;28656;-91
2022/03/28 22:51:57;;;;;;;;;63.00;49.33;;;;;;;;5032958;28;28540;-93
2022/03/28 22:54:22;;;;;;;;;62.33;50.33;;;;;;;;5034175;28;29778;-93
2022/03/28 22:56:49;;;;;;;;;63.00;49.75;;;;;;;;5033241;28;28499;-89
2022/03/28 22:59:14;;;;;;;;;67.20;53.40;;;;;;;;5049926;28;28402;-90
2022/03/28 23:01:40;;;;;;;;;64.00;51.00;;;;;;;;5032415;28;27892;-89
2022/03/28 23:04:05;;;;;;;;;66.67;52.33;;;;;;;;5050067;28;28915;-89
2022/03/28 23:06:30;;;;;;;;;61.67;49.67;;;;;;;;5049369;28;28482;-89
2022/03/28 23:08:56;;;;;;;;;61.00;49.67;;;;;;;;5050214;28;28403;-89
2022/03/28 23:11:21;;;;;;;;;65.50;51.00;;;;;;;;5050365;28;28419;-88
2022/03/28 23:13:47;;;;;;;;;63.33;50.33;;;;;;;;5049452;28;28512;-89
2022/03/28 23:16:12;;;;;;;;;62.25;48.25;;;;;;;;5049989;28;28336;-90
2022/03/28 23:18:37;;;;;;;;;63.33;51.67;;;;;;;;5049073;28;28417;-90
2022/03/28 23:21:03;;;;;;;;;63.25;51.25;;;;;;;;5050059;28;28491;-90
2022/03/28 23:23:28;;;;;;;;;62.50;50.75;;;;;;;;5031703;28;29650;-90
2022/03/28 23:25:53;;;;;;;;;64.00;52.00;;;;;;;;5050975;28;28351;-89
2022/03/28 23:28:21;;;;;;;;;67.00;52.50;;;;;;;;5031947;28;28341;-88
2022/03/28 23:30:46;;;;;;;;;63.60;50.60;;;;;;;;5049625;28;28645;-90
2022/03/28 23:33:11;;;;;;;;;64.75;52.75;;;;;;;;5031556;28;30746;-89
2022/03/28 23:35:37;;;;;;;;;66.00;53.00;;;;;;;;5049896;28;28387;-88
2022/03/28 23:38:02;;;;;;;;;67.00;53.25;;;;;;;;5049910;28;28391;-88
2022/03/28 23:40:27;;;;;;;;;66.00;51.33;;;;;;;;5049650;28;28387;-88
2022/03/28 23:42:52;;;;;;;;;65.75;52.00;;;;;;;;5049202;28;28463;-89
2022/03/28 23:45:18;;;;;;;;;65.33;52.00;;;;;;;;5031438;28;28396;-87
2022/03/28 23:47:43;;;;;;;;;62.33;51.00;;;;;;;;5031391;28;28414;-88
2022/03/28 23:50:10;;;;;;;;;68.67;55.00;;;;;;;;5049767;28;28451;-89
2022/03/28 23:52:36;;;;;;;;;66.75;55.00;;;;;;;;5031534;28;28653;-89
2022/03/28 23:55:01;;;;;;;;;66.50;53.50;;;;;;;;5031589;28;28556;-89
2022/03/28 23:57:26;;;;;;;;;63.00;51.75;;;;;;;;5031072;28;28384;-91
2022/03/28 23:59:51;;;;;;;;;70.25;56.75;;;;;;;;5049116;28;28471;-89
